sensor_id;sensor_type;location;lat;lon;timestamp;P1;durP1;ratioP1;P2;durP2;ratioP2
41667;SDS011;27356;50.920;5.350;2023-09-18T00:00:50;8.88;;;5.22;;
41667;SDS011;27356;50.920;5.350;2023-09-18T00:03:19;10.70;;;4.78;;
41667;SDS011;27356;50.920;5.350;2023-09-18T00:05:46;7.95;;;5.00;;
41667;SDS011;27356;50.920;5.350;2023-09-18T00:08:15;10.85;;;4.57;;
41667;SDS011;27356;50.920;5.350;2023-09-18T00:10:42;4.50;;;4.07;;
41667;SDS011;27356;50.920;5.350;2023-09-18T00:13:12;8.43;;;4.60;;
41667;SDS011;27356;50.920;5.350;2023-09-18T00:15:38;5.18;;;3.60;;
41667;SDS011;27356;50.920;5.350;2023-09-18T00:18:06;9.40;;;4.97;;
41667;SDS011;27356;50.920;5.350;2023-09-18T00:20:32;7.30;;;4.10;;
41667;SDS011;27356;50.920;5.350;2023-09-18T00:22:57;7.78;;;4.03;;
41667;SDS011;27356;50.920;5.350;2023-09-18T00:25:23;13.18;;;4.00;;
41667;SDS011;27356;50.920;5.350;2023-09-18T00:27:49;9.43;;;4.40;;
41667;SDS011;27356;50.920;5.350;2023-09-18T00:30:16;9.82;;;4.05;;
41667;SDS011;27356;50.920;5.350;2023-09-18T00:32:42;8.50;;;4.85;;
41667;SDS011;27356;50.920;5.350;2023-09-18T00:35:08;8.15;;;4.68;;
41667;SDS011;27356;50.920;5.350;2023-09-18T00:37:34;9.73;;;4.88;;
41667;SDS011;27356;50.920;5.350;2023-09-18T00:40:02;4.93;;;4.18;;
41667;SDS011;27356;50.920;5.350;2023-09-18T00:42:30;5.70;;;4.00;;
41667;SDS011;27356;50.920;5.350;2023-09-18T00:44:55;14.25;;;5.53;;
41667;SDS011;27356;50.920;5.350;2023-09-18T00:47:21;7.22;;;4.00;;
41667;SDS011;27356;50.920;5.350;2023-09-18T00:49:47;8.90;;;4.47;;
41667;SDS011;27356;50.920;5.350;2023-09-18T00:52:15;9.07;;;4.38;;
41667;SDS011;27356;50.920;5.350;2023-09-18T00:54:41;11.55;;;5.32;;
41667;SDS011;27356;50.920;5.350;2023-09-18T00:57:08;6.80;;;4.32;;
41667;SDS011;27356;50.920;5.350;2023-09-18T00:59:35;5.95;;;3.92;;
41667;SDS011;27356;50.920;5.350;2023-09-18T01:02:01;10.98;;;5.43;;
41667;SDS011;27356;50.920;5.350;2023-09-18T01:04:28;9.20;;;4.20;;
41667;SDS011;27356;50.920;5.350;2023-09-18T01:06:55;7.82;;;4.20;;
41667;SDS011;27356;50.920;5.350;2023-09-18T01:09:23;5.53;;;4.10;;
41667;SDS011;27356;50.920;5.350;2023-09-18T01:17:29;7.78;;;3.90;;
41667;SDS011;27356;50.920;5.350;2023-09-18T01:19:59;8.13;;;3.63;;
41667;SDS011;27356;50.920;5.350;2023-09-18T01:22:28;9.98;;;3.95;;
41667;SDS011;27356;50.920;5.350;2023-09-18T01:24:55;8.80;;;3.78;;
41667;SDS011;27356;50.920;5.350;2023-09-18T01:27:21;12.10;;;3.90;;
41667;SDS011;27356;50.920;5.350;2023-09-18T01:29:46;12.57;;;4.15;;
41667;SDS011;27356;50.920;5.350;2023-09-18T01:32:13;6.13;;;3.50;;
41667;SDS011;27356;50.920;5.350;2023-09-18T01:34:49;10.50;;;3.72;;
41667;SDS011;27356;50.920;5.350;2023-09-18T01:37:17;8.27;;;3.33;;
41667;SDS011;27356;50.920;5.350;2023-09-18T01:39:47;8.02;;;3.53;;
41667;SDS011;27356;50.920;5.350;2023-09-18T01:42:15;8.57;;;3.08;;
41667;SDS011;27356;50.920;5.350;2023-09-18T01:44:41;7.95;;;3.47;;
41667;SDS011;27356;50.920;5.350;2023-09-18T01:47:08;8.30;;;2.97;;
41667;SDS011;27356;50.920;5.350;2023-09-18T01:49:36;10.45;;;3.45;;
41667;SDS011;27356;50.920;5.350;2023-09-18T01:52:04;15.48;;;4.03;;
41667;SDS011;27356;50.920;5.350;2023-09-18T01:54:30;11.95;;;4.03;;
41667;SDS011;27356;50.920;5.350;2023-09-18T01:56:57;8.43;;;3.67;;
41667;SDS011;27356;50.920;5.350;2023-09-18T01:59:23;10.07;;;3.65;;
41667;SDS011;27356;50.920;5.350;2023-09-18T02:01:49;8.63;;;3.58;;
41667;SDS011;27356;50.920;5.350;2023-09-18T02:04:16;14.93;;;4.18;;
41667;SDS011;27356;50.920;5.350;2023-09-18T02:06:43;11.20;;;3.53;;
41667;SDS011;27356;50.920;5.350;2023-09-18T02:09:09;10.23;;;2.80;;
41667;SDS011;27356;50.920;5.350;2023-09-18T02:11:39;12.32;;;3.17;;
41667;SDS011;27356;50.920;5.350;2023-09-18T02:14:05;7.60;;;2.70;;
41667;SDS011;27356;50.920;5.350;2023-09-18T02:16:35;6.40;;;2.40;;
41667;SDS011;27356;50.920;5.350;2023-09-18T02:19:02;3.10;;;2.22;;
41667;SDS011;27356;50.920;5.350;2023-09-18T02:21:28;8.10;;;2.10;;
41667;SDS011;27356;50.920;5.350;2023-09-18T02:23:54;6.55;;;2.60;;
41667;SDS011;27356;50.920;5.350;2023-09-18T02:26:20;6.25;;;1.95;;
41667;SDS011;27356;50.920;5.350;2023-09-18T02:28:47;8.57;;;2.80;;
41667;SDS011;27356;50.920;5.350;2023-09-18T02:31:13;11.95;;;2.78;;
41667;SDS011;27356;50.920;5.350;2023-09-18T02:33:39;7.07;;;2.78;;
41667;SDS011;27356;50.920;5.350;2023-09-18T02:36:05;7.82;;;2.17;;
41667;SDS011;27356;50.920;5.350;2023-09-18T02:38:32;6.10;;;2.72;;
41667;SDS011;27356;50.920;5.350;2023-09-18T02:40:59;11.65;;;2.60;;
41667;SDS011;27356;50.920;5.350;2023-09-18T02:43:25;8.10;;;2.88;;
41667;SDS011;27356;50.920;5.350;2023-09-18T02:45:51;4.82;;;2.10;;
41667;SDS011;27356;50.920;5.350;2023-09-18T02:48:17;5.28;;;1.95;;
41667;SDS011;27356;50.920;5.350;2023-09-18T02:50:44;3.80;;;1.90;;
41667;SDS011;27356;50.920;5.350;2023-09-18T02:53:17;9.13;;;3.40;;
41667;SDS011;27356;50.920;5.350;2023-09-18T02:55:44;6.00;;;1.95;;
41667;SDS011;27356;50.920;5.350;2023-09-18T02:58:11;4.93;;;2.08;;
41667;SDS011;27356;50.920;5.350;2023-09-18T03:00:43;5.13;;;2.08;;
41667;SDS011;27356;50.920;5.350;2023-09-18T03:03:10;4.35;;;1.83;;
41667;SDS011;27356;50.920;5.350;2023-09-18T03:05:36;5.38;;;2.20;;
41667;SDS011;27356;50.920;5.350;2023-09-18T03:08:03;4.82;;;2.03;;
41667;SDS011;27356;50.920;5.350;2023-09-18T03:10:32;2.65;;;1.52;;
41667;SDS011;27356;50.920;5.350;2023-09-18T03:12:59;6.97;;;1.95;;
41667;SDS011;27356;50.920;5.350;2023-09-18T03:15:25;4.97;;;1.90;;
41667;SDS011;27356;50.920;5.350;2023-09-18T03:17:51;9.52;;;2.03;;
41667;SDS011;27356;50.920;5.350;2023-09-18T03:20:17;7.10;;;1.75;;
41667;SDS011;27356;50.920;5.350;2023-09-18T03:22:43;8.43;;;2.17;;
41667;SDS011;27356;50.920;5.350;2023-09-18T03:25:08;3.97;;;1.73;;
41667;SDS011;27356;50.920;5.350;2023-09-18T03:27:35;5.40;;;1.90;;
41667;SDS011;27356;50.920;5.350;2023-09-18T03:30:00;3.13;;;1.50;;
41667;SDS011;27356;50.920;5.350;2023-09-18T03:32:26;5.88;;;2.25;;
41667;SDS011;27356;50.920;5.350;2023-09-18T03:34:52;3.53;;;1.90;;
41667;SDS011;27356;50.920;5.350;2023-09-18T03:37:18;4.30;;;2.10;;
41667;SDS011;27356;50.920;5.350;2023-09-18T03:39:44;4.10;;;1.88;;
41667;SDS011;27356;50.920;5.350;2023-09-18T03:42:10;4.88;;;1.70;;
41667;SDS011;27356;50.920;5.350;2023-09-18T03:44:36;7.00;;;1.92;;
41667;SDS011;27356;50.920;5.350;2023-09-18T03:47:02;2.25;;;1.90;;
41667;SDS011;27356;50.920;5.350;2023-09-18T03:49:28;4.20;;;1.60;;
41667;SDS011;27356;50.920;5.350;2023-09-18T03:51:54;2.53;;;1.58;;
41667;SDS011;27356;50.920;5.350;2023-09-18T03:54:20;7.95;;;1.65;;
41667;SDS011;27356;50.920;5.350;2023-09-18T03:56:46;4.75;;;1.60;;
41667;SDS011;27356;50.920;5.350;2023-09-18T03:59:12;2.88;;;1.65;;
41667;SDS011;27356;50.920;5.350;2023-09-18T04:01:38;4.57;;;2.17;;
41667;SDS011;27356;50.920;5.350;2023-09-18T04:04:04;2.03;;;1.45;;
41667;SDS011;27356;50.920;5.350;2023-09-18T04:06:40;3.25;;;1.90;;
41667;SDS011;27356;50.920;5.350;2023-09-18T04:09:07;3.17;;;1.40;;
41667;SDS011;27356;50.920;5.350;2023-09-18T04:11:33;2.28;;;1.27;;
41667;SDS011;27356;50.920;5.350;2023-09-18T04:13:59;8.48;;;2.10;;
41667;SDS011;27356;50.920;5.350;2023-09-18T04:16:26;7.43;;;1.55;;
41667;SDS011;27356;50.920;5.350;2023-09-18T04:18:53;4.43;;;1.50;;
41667;SDS011;27356;50.920;5.350;2023-09-18T04:21:19;5.45;;;1.55;;
41667;SDS011;27356;50.920;5.350;2023-09-18T04:23:46;2.63;;;1.50;;
41667;SDS011;27356;50.920;5.350;2023-09-18T04:26:12;4.88;;;1.92;;
41667;SDS011;27356;50.920;5.350;2023-09-18T04:28:41;4.78;;;1.58;;
41667;SDS011;27356;50.920;5.350;2023-09-18T04:31:07;2.00;;;1.30;;
41667;SDS011;27356;50.920;5.350;2023-09-18T04:33:32;2.80;;;1.52;;
41667;SDS011;27356;50.920;5.350;2023-09-18T04:35:58;2.20;;;1.50;;
41667;SDS011;27356;50.920;5.350;2023-09-18T04:38:24;3.28;;;1.45;;
41667;SDS011;27356;50.920;5.350;2023-09-18T04:40:56;3.40;;;1.80;;
41667;SDS011;27356;50.920;5.350;2023-09-18T04:43:23;6.15;;;1.63;;
41667;SDS011;27356;50.920;5.350;2023-09-18T04:45:50;3.83;;;1.85;;
41667;SDS011;27356;50.920;5.350;2023-09-18T04:48:15;2.25;;;1.30;;
41667;SDS011;27356;50.920;5.350;2023-09-18T04:50:42;3.10;;;1.55;;
41667;SDS011;27356;50.920;5.350;2023-09-18T04:53:08;2.85;;;1.33;;
41667;SDS011;27356;50.920;5.350;2023-09-18T04:55:34;3.03;;;1.75;;
41667;SDS011;27356;50.920;5.350;2023-09-18T04:58:00;3.55;;;1.50;;
41667;SDS011;27356;50.920;5.350;2023-09-18T05:00:25;3.10;;;1.58;;
41667;SDS011;27356;50.920;5.350;2023-09-18T05:02:53;2.95;;;1.17;;
41667;SDS011;27356;50.920;5.350;2023-09-18T05:05:19;8.05;;;1.20;;
41667;SDS011;27356;50.920;5.350;2023-09-18T05:07:45;2.55;;;1.45;;
41667;SDS011;27356;50.920;5.350;2023-09-18T05:10:13;2.70;;;1.13;;
41667;SDS011;27356;50.920;5.350;2023-09-18T05:12:39;1.45;;;1.17;;
41667;SDS011;27356;50.920;5.350;2023-09-18T05:15:08;3.90;;;1.50;;
41667;SDS011;27356;50.920;5.350;2023-09-18T05:17:42;2.45;;;1.30;;
41667;SDS011;27356;50.920;5.350;2023-09-18T05:20:11;8.45;;;1.55;;
41667;SDS011;27356;50.920;5.350;2023-09-18T05:22:41;4.97;;;1.55;;
41667;SDS011;27356;50.920;5.350;2023-09-18T05:25:08;2.28;;;1.42;;
41667;SDS011;27356;50.920;5.350;2023-09-18T05:27:39;1.55;;;1.30;;
41667;SDS011;27356;50.920;5.350;2023-09-18T05:30:10;3.13;;;1.33;;
41667;SDS011;27356;50.920;5.350;2023-09-18T05:32:37;4.10;;;1.42;;
41667;SDS011;27356;50.920;5.350;2023-09-18T05:35:09;5.88;;;1.33;;
41667;SDS011;27356;50.920;5.350;2023-09-18T05:37:37;5.07;;;1.30;;
41667;SDS011;27356;50.920;5.350;2023-09-18T05:40:04;2.22;;;1.38;;
41667;SDS011;27356;50.920;5.350;2023-09-18T05:42:34;3.47;;;1.40;;
41667;SDS011;27356;50.920;5.350;2023-09-18T05:45:01;2.97;;;1.02;;
41667;SDS011;27356;50.920;5.350;2023-09-18T05:47:29;3.78;;;1.20;;
41667;SDS011;27356;50.920;5.350;2023-09-18T05:49:56;3.92;;;1.00;;
41667;SDS011;27356;50.920;5.350;2023-09-18T05:52:22;2.05;;;1.40;;
41667;SDS011;27356;50.920;5.350;2023-09-18T05:54:48;3.55;;;0.93;;
41667;SDS011;27356;50.920;5.350;2023-09-18T05:57:14;3.78;;;1.25;;
41667;SDS011;27356;50.920;5.350;2023-09-18T05:59:41;1.58;;;0.85;;
41667;SDS011;27356;50.920;5.350;2023-09-18T06:02:10;4.78;;;1.27;;
41667;SDS011;27356;50.920;5.350;2023-09-18T06:04:35;6.95;;;1.40;;
41667;SDS011;27356;50.920;5.350;2023-09-18T06:07:02;1.73;;;1.10;;
41667;SDS011;27356;50.920;5.350;2023-09-18T06:09:28;2.78;;;1.05;;
41667;SDS011;27356;50.920;5.350;2023-09-18T06:11:54;4.80;;;1.08;;
41667;SDS011;27356;50.920;5.350;2023-09-18T06:14:20;2.63;;;1.05;;
41667;SDS011;27356;50.920;5.350;2023-09-18T06:16:45;3.03;;;0.95;;
41667;SDS011;27356;50.920;5.350;2023-09-18T06:19:11;2.95;;;1.15;;
41667;SDS011;27356;50.920;5.350;2023-09-18T06:21:38;3.20;;;1.20;;
41667;SDS011;27356;50.920;5.350;2023-09-18T06:24:04;1.25;;;0.77;;
41667;SDS011;27356;50.920;5.350;2023-09-18T06:26:30;3.85;;;1.10;;
41667;SDS011;27356;50.920;5.350;2023-09-18T06:28:55;2.83;;;1.20;;
41667;SDS011;27356;50.920;5.350;2023-09-18T06:31:21;1.95;;;1.05;;
41667;SDS011;27356;50.920;5.350;2023-09-18T06:33:48;3.50;;;1.10;;
41667;SDS011;27356;50.920;5.350;2023-09-18T06:36:14;3.75;;;0.93;;
41667;SDS011;27356;50.920;5.350;2023-09-18T06:38:40;2.67;;;0.80;;
41667;SDS011;27356;50.920;5.350;2023-09-18T06:41:06;3.92;;;1.10;;
41667;SDS011;27356;50.920;5.350;2023-09-18T06:43:31;6.20;;;1.25;;
41667;SDS011;27356;50.920;5.350;2023-09-18T06:45:58;3.50;;;0.95;;
41667;SDS011;27356;50.920;5.350;2023-09-18T06:48:24;7.05;;;1.20;;
41667;SDS011;27356;50.920;5.350;2023-09-18T06:50:50;2.58;;;1.05;;
41667;SDS011;27356;50.920;5.350;2023-09-18T06:53:15;5.20;;;0.90;;
41667;SDS011;27356;50.920;5.350;2023-09-18T06:55:41;1.50;;;1.00;;
41667;SDS011;27356;50.920;5.350;2023-09-18T06:58:07;4.45;;;1.00;;
41667;SDS011;27356;50.920;5.350;2023-09-18T07:00:33;7.18;;;1.30;;
41667;SDS011;27356;50.920;5.350;2023-09-18T07:02:59;2.45;;;1.35;;
41667;SDS011;27356;50.920;5.350;2023-09-18T07:05:24;3.65;;;0.80;;
41667;SDS011;27356;50.920;5.350;2023-09-18T07:07:50;2.97;;;0.77;;
41667;SDS011;27356;50.920;5.350;2023-09-18T07:10:16;3.28;;;0.80;;
41667;SDS011;27356;50.920;5.350;2023-09-18T07:12:42;3.63;;;0.82;;
41667;SDS011;27356;50.920;5.350;2023-09-18T07:15:08;1.25;;;1.08;;
41667;SDS011;27356;50.920;5.350;2023-09-18T07:17:34;2.35;;;0.98;;
41667;SDS011;27356;50.920;5.350;2023-09-18T07:20:00;4.50;;;1.10;;
41667;SDS011;27356;50.920;5.350;2023-09-18T07:22:28;2.58;;;0.80;;
41667;SDS011;27356;50.920;5.350;2023-09-18T07:24:54;2.45;;;0.80;;
41667;SDS011;27356;50.920;5.350;2023-09-18T07:27:19;2.35;;;0.65;;
41667;SDS011;27356;50.920;5.350;2023-09-18T07:29:45;1.25;;;0.80;;
41667;SDS011;27356;50.920;5.350;2023-09-18T07:32:11;5.47;;;1.15;;
41667;SDS011;27356;50.920;5.350;2023-09-18T07:34:37;1.15;;;0.82;;
41667;SDS011;27356;50.920;5.350;2023-09-18T07:37:03;3.75;;;0.70;;
41667;SDS011;27356;50.920;5.350;2023-09-18T07:39:30;4.43;;;1.00;;
41667;SDS011;27356;50.920;5.350;2023-09-18T07:41:56;4.50;;;0.95;;
41667;SDS011;27356;50.920;5.350;2023-09-18T07:44:22;2.25;;;0.70;;
41667;SDS011;27356;50.920;5.350;2023-09-18T07:46:48;2.90;;;0.90;;
41667;SDS011;27356;50.920;5.350;2023-09-18T07:49:15;2.35;;;0.70;;
41667;SDS011;27356;50.920;5.350;2023-09-18T07:51:50;3.88;;;1.50;;
41667;SDS011;27356;50.920;5.350;2023-09-18T07:54:22;2.23;;;0.70;;
41667;SDS011;27356;50.920;5.350;2023-09-18T07:56:48;1.92;;;0.88;;
41667;SDS011;27356;50.920;5.350;2023-09-18T07:59:14;1.80;;;0.65;;
41667;SDS011;27356;50.920;5.350;2023-09-18T08:01:40;3.55;;;0.82;;
41667;SDS011;27356;50.920;5.350;2023-09-18T08:04:06;2.67;;;0.57;;
41667;SDS011;27356;50.920;5.350;2023-09-18T08:06:32;1.98;;;0.77;;
41667;SDS011;27356;50.920;5.350;2023-09-18T08:08:58;4.40;;;0.90;;
41667;SDS011;27356;50.920;5.350;2023-09-18T08:11:25;2.83;;;0.60;;
41667;SDS011;27356;50.920;5.350;2023-09-18T08:13:51;3.15;;;0.88;;
41667;SDS011;27356;50.920;5.350;2023-09-18T08:16:16;3.65;;;0.80;;
41667;SDS011;27356;50.920;5.350;2023-09-18T08:18:43;4.05;;;0.70;;
41667;SDS011;27356;50.920;5.350;2023-09-18T08:21:08;1.73;;;0.73;;
41667;SDS011;27356;50.920;5.350;2023-09-18T08:23:37;2.92;;;0.77;;
41667;SDS011;27356;50.920;5.350;2023-09-18T08:26:03;0.95;;;0.55;;
41667;SDS011;27356;50.920;5.350;2023-09-18T08:28:29;0.80;;;0.68;;
41667;SDS011;27356;50.920;5.350;2023-09-18T08:30:55;1.88;;;1.08;;
41667;SDS011;27356;50.920;5.350;2023-09-18T08:33:21;2.58;;;1.20;;
41667;SDS011;27356;50.920;5.350;2023-09-18T08:35:47;0.50;;;0.40;;
41667;SDS011;27356;50.920;5.350;2023-09-18T08:38:14;1.92;;;1.00;;
41667;SDS011;27356;50.920;5.350;2023-09-18T08:40:41;0.98;;;0.70;;
41667;SDS011;27356;50.920;5.350;2023-09-18T08:43:10;1.98;;;0.80;;
41667;SDS011;27356;50.920;5.350;2023-09-18T08:45:51;1.65;;;0.55;;
41667;SDS011;27356;50.920;5.350;2023-09-18T08:48:18;2.50;;;0.68;;
41667;SDS011;27356;50.920;5.350;2023-09-18T08:50:46;2.10;;;0.80;;
41667;SDS011;27356;50.920;5.350;2023-09-18T08:53:13;2.30;;;0.63;;
41667;SDS011;27356;50.920;5.350;2023-09-18T08:55:39;1.33;;;0.60;;
41667;SDS011;27356;50.920;5.350;2023-09-18T08:58:06;1.25;;;0.65;;
41667;SDS011;27356;50.920;5.350;2023-09-18T09:00:33;2.00;;;0.60;;
41667;SDS011;27356;50.920;5.350;2023-09-18T09:03:05;1.98;;;0.60;;
41667;SDS011;27356;50.920;5.350;2023-09-18T09:05:30;2.40;;;0.50;;
41667;SDS011;27356;50.920;5.350;2023-09-18T09:07:57;2.95;;;0.95;;
41667;SDS011;27356;50.920;5.350;2023-09-18T09:10:23;1.33;;;0.70;;
41667;SDS011;27356;50.920;5.350;2023-09-18T09:15:19;2.33;;;0.75;;
41667;SDS011;27356;50.920;5.350;2023-09-18T09:17:48;0.82;;;0.60;;
41667;SDS011;27356;50.920;5.350;2023-09-18T09:20:16;3.53;;;1.02;;
41667;SDS011;27356;50.920;5.350;2023-09-18T09:22:44;0.82;;;0.45;;
41667;SDS011;27356;50.920;5.350;2023-09-18T09:25:22;2.72;;;0.73;;
41667;SDS011;27356;50.920;5.350;2023-09-18T09:30:21;2.08;;;0.82;;
41667;SDS011;27356;50.920;5.350;2023-09-18T09:32:51;3.00;;;1.10;;
41667;SDS011;27356;50.920;5.350;2023-09-18T09:35:29;4.35;;;1.10;;
41667;SDS011;27356;50.920;5.350;2023-09-18T09:38:00;5.15;;;0.90;;
41667;SDS011;27356;50.920;5.350;2023-09-18T09:40:40;2.88;;;1.10;;
41667;SDS011;27356;50.920;5.350;2023-09-18T09:43:07;1.17;;;0.70;;
41667;SDS011;27356;50.920;5.350;2023-09-18T09:45:34;2.95;;;1.20;;
41667;SDS011;27356;50.920;5.350;2023-09-18T09:48:04;1.30;;;0.98;;
41667;SDS011;27356;50.920;5.350;2023-09-18T09:50:31;6.45;;;1.77;;
41667;SDS011;27356;50.920;5.350;2023-09-18T09:52:58;3.38;;;1.30;;
41667;SDS011;27356;50.920;5.350;2023-09-18T09:55:29;2.25;;;1.13;;
41667;SDS011;27356;50.920;5.350;2023-09-18T09:58:03;2.03;;;0.90;;
41667;SDS011;27356;50.920;5.350;2023-09-18T10:00:33;6.03;;;1.00;;
41667;SDS011;27356;50.920;5.350;2023-09-18T10:03:08;3.45;;;0.98;;
41667;SDS011;27356;50.920;5.350;2023-09-18T10:05:39;3.90;;;1.08;;
41667;SDS011;27356;50.920;5.350;2023-09-18T10:10:42;3.80;;;1.10;;
41667;SDS011;27356;50.920;5.350;2023-09-18T10:13:14;1.40;;;0.70;;
41667;SDS011;27356;50.920;5.350;2023-09-18T10:15:50;5.53;;;1.13;;
41667;SDS011;27356;50.920;5.350;2023-09-18T10:23:51;2.35;;;1.00;;
41667;SDS011;27356;50.920;5.350;2023-09-18T10:26:30;1.92;;;1.00;;
41667;SDS011;27356;50.920;5.350;2023-09-18T10:29:03;2.50;;;0.75;;
41667;SDS011;27356;50.920;5.350;2023-09-18T10:31:31;1.63;;;1.10;;
41667;SDS011;27356;50.920;5.350;2023-09-18T10:34:00;6.07;;;1.25;;
41667;SDS011;27356;50.920;5.350;2023-09-18T10:36:28;2.17;;;1.00;;
41667;SDS011;27356;50.920;5.350;2023-09-18T10:38:59;5.32;;;1.02;;
41667;SDS011;27356;50.920;5.350;2023-09-18T10:41:26;1.45;;;0.98;;
41667;SDS011;27356;50.920;5.350;2023-09-18T10:43:58;2.15;;;0.90;;
41667;SDS011;27356;50.920;5.350;2023-09-18T10:46:26;5.55;;;0.93;;
41667;SDS011;27356;50.920;5.350;2023-09-18T10:48:52;3.42;;;1.00;;
41667;SDS011;27356;50.920;5.350;2023-09-18T10:51:20;3.92;;;0.82;;
41667;SDS011;27356;50.920;5.350;2023-09-18T10:53:47;1.83;;;1.05;;
41667;SDS011;27356;50.920;5.350;2023-09-18T10:56:17;1.27;;;0.80;;
41667;SDS011;27356;50.920;5.350;2023-09-18T10:58:45;2.72;;;1.13;;
41667;SDS011;27356;50.920;5.350;2023-09-18T11:01:12;2.67;;;1.00;;
41667;SDS011;27356;50.920;5.350;2023-09-18T11:03:38;5.60;;;0.95;;
41667;SDS011;27356;50.920;5.350;2023-09-18T11:06:06;7.07;;;1.20;;
41667;SDS011;27356;50.920;5.350;2023-09-18T11:08:45;1.02;;;0.85;;
41667;SDS011;27356;50.920;5.350;2023-09-18T11:11:16;1.65;;;0.95;;
41667;SDS011;27356;50.920;5.350;2023-09-18T11:13:48;2.55;;;1.15;;
41667;SDS011;27356;50.920;5.350;2023-09-18T11:18:53;4.30;;;1.10;;
41667;SDS011;27356;50.920;5.350;2023-09-18T11:21:29;4.57;;;1.10;;
41667;SDS011;27356;50.920;5.350;2023-09-18T11:24:00;5.38;;;1.38;;
41667;SDS011;27356;50.920;5.350;2023-09-18T11:26:29;2.45;;;1.05;;
41667;SDS011;27356;50.920;5.350;2023-09-18T11:29:07;4.72;;;1.05;;
41667;SDS011;27356;50.920;5.350;2023-09-18T11:34:28;2.45;;;1.05;;
41667;SDS011;27356;50.920;5.350;2023-09-18T11:37:00;4.55;;;0.88;;
41667;SDS011;27356;50.920;5.350;2023-09-18T11:39:39;4.45;;;1.00;;
41667;SDS011;27356;50.920;5.350;2023-09-18T11:42:17;1.85;;;0.88;;
41667;SDS011;27356;50.920;5.350;2023-09-18T11:44:53;3.75;;;1.23;;
41667;SDS011;27356;50.920;5.350;2023-09-18T11:47:23;2.17;;;0.98;;
41667;SDS011;27356;50.920;5.350;2023-09-18T11:49:51;2.75;;;0.93;;
41667;SDS011;27356;50.920;5.350;2023-09-18T11:52:30;2.58;;;0.68;;
41667;SDS011;27356;50.920;5.350;2023-09-18T11:54:57;2.90;;;1.02;;
41667;SDS011;27356;50.920;5.350;2023-09-18T11:57:24;4.63;;;1.27;;
41667;SDS011;27356;50.920;5.350;2023-09-18T11:59:50;4.63;;;0.98;;
41667;SDS011;27356;50.920;5.350;2023-09-18T12:02:37;1.75;;;0.80;;
41667;SDS011;27356;50.920;5.350;2023-09-18T12:05:17;2.75;;;1.10;;
41667;SDS011;27356;50.920;5.350;2023-09-18T12:07:44;3.95;;;1.30;;
41667;SDS011;27356;50.920;5.350;2023-09-18T12:10:14;2.50;;;0.88;;
41667;SDS011;27356;50.920;5.350;2023-09-18T12:12:45;4.30;;;0.80;;
41667;SDS011;27356;50.920;5.350;2023-09-18T12:15:12;2.70;;;1.05;;
41667;SDS011;27356;50.920;5.350;2023-09-18T12:17:42;1.40;;;0.93;;
41667;SDS011;27356;50.920;5.350;2023-09-18T12:20:14;3.05;;;1.00;;
41667;SDS011;27356;50.920;5.350;2023-09-18T12:22:46;2.75;;;1.10;;
41667;SDS011;27356;50.920;5.350;2023-09-18T12:25:15;2.50;;;1.08;;
41667;SDS011;27356;50.920;5.350;2023-09-18T12:27:45;4.35;;;1.02;;
41667;SDS011;27356;50.920;5.350;2023-09-18T12:30:12;5.15;;;1.15;;
41667;SDS011;27356;50.920;5.350;2023-09-18T12:32:45;5.55;;;0.98;;
41667;SDS011;27356;50.920;5.350;2023-09-18T12:35:15;3.83;;;1.27;;
41667;SDS011;27356;50.920;5.350;2023-09-18T12:37:43;2.67;;;1.15;;
41667;SDS011;27356;50.920;5.350;2023-09-18T12:40:22;3.58;;;0.95;;
41667;SDS011;27356;50.920;5.350;2023-09-18T12:42:49;2.05;;;0.98;;
41667;SDS011;27356;50.920;5.350;2023-09-18T12:45:16;1.73;;;1.10;;
41667;SDS011;27356;50.920;5.350;2023-09-18T12:47:42;3.20;;;1.30;;
41667;SDS011;27356;50.920;5.350;2023-09-18T12:50:09;4.15;;;1.05;;
41667;SDS011;27356;50.920;5.350;2023-09-18T12:52:38;2.72;;;0.80;;
41667;SDS011;27356;50.920;5.350;2023-09-18T12:55:04;7.05;;;1.15;;
41667;SDS011;27356;50.920;5.350;2023-09-18T12:57:31;4.63;;;1.65;;
41667;SDS011;27356;50.920;5.350;2023-09-18T12:59:58;4.03;;;1.27;;
41667;SDS011;27356;50.920;5.350;2023-09-18T13:02:24;1.95;;;0.80;;
41667;SDS011;27356;50.920;5.350;2023-09-18T13:04:54;3.25;;;1.00;;
41667;SDS011;27356;50.920;5.350;2023-09-18T13:07:21;3.60;;;0.90;;
41667;SDS011;27356;50.920;5.350;2023-09-18T13:10:02;2.67;;;0.90;;
41667;SDS011;27356;50.920;5.350;2023-09-18T13:12:40;3.92;;;0.88;;
41667;SDS011;27356;50.920;5.350;2023-09-18T13:15:50;1.63;;;0.90;;
41667;SDS011;27356;50.920;5.350;2023-09-18T13:18:12;1.15;;;1.00;;
41667;SDS011;27356;50.920;5.350;2023-09-18T13:20:39;2.30;;;1.15;;
41667;SDS011;27356;50.920;5.350;2023-09-18T13:23:06;3.38;;;0.85;;
41667;SDS011;27356;50.920;5.350;2023-09-18T13:28:23;3.17;;;1.00;;
41667;SDS011;27356;50.920;5.350;2023-09-18T13:30:50;1.10;;;1.00;;
41667;SDS011;27356;50.920;5.350;2023-09-18T13:33:16;1.30;;;0.90;;
41667;SDS011;27356;50.920;5.350;2023-09-18T13:35:44;2.08;;;0.80;;
41667;SDS011;27356;50.920;5.350;2023-09-18T13:38:10;1.80;;;0.88;;
41667;SDS011;27356;50.920;5.350;2023-09-18T13:40:37;2.13;;;1.00;;
41667;SDS011;27356;50.920;5.350;2023-09-18T13:43:05;2.05;;;0.90;;
41667;SDS011;27356;50.920;5.350;2023-09-18T13:48:14;1.02;;;0.93;;
41667;SDS011;27356;50.920;5.350;2023-09-18T13:50:41;1.30;;;0.90;;
41667;SDS011;27356;50.920;5.350;2023-09-18T13:53:06;3.03;;;1.45;;
41667;SDS011;27356;50.920;5.350;2023-09-18T13:55:33;5.22;;;0.93;;
41667;SDS011;27356;50.920;5.350;2023-09-18T13:57:59;2.22;;;0.80;;
41667;SDS011;27356;50.920;5.350;2023-09-18T14:00:28;1.38;;;0.82;;
41667;SDS011;27356;50.920;5.350;2023-09-18T14:02:54;0.90;;;0.80;;
41667;SDS011;27356;50.920;5.350;2023-09-18T14:05:20;1.05;;;0.63;;
41667;SDS011;27356;50.920;5.350;2023-09-18T14:07:46;2.78;;;0.70;;
41667;SDS011;27356;50.920;5.350;2023-09-18T14:10:12;3.97;;;1.10;;
41667;SDS011;27356;50.920;5.350;2023-09-18T14:12:39;1.60;;;0.77;;
41667;SDS011;27356;50.920;5.350;2023-09-18T14:15:06;1.52;;;0.88;;
41667;SDS011;27356;50.920;5.350;2023-09-18T14:17:33;2.50;;;0.80;;
41667;SDS011;27356;50.920;5.350;2023-09-18T14:20:05;1.45;;;0.73;;
41667;SDS011;27356;50.920;5.350;2023-09-18T14:22:32;3.13;;;0.65;;
41667;SDS011;27356;50.920;5.350;2023-09-18T14:24:58;2.35;;;0.77;;
41667;SDS011;27356;50.920;5.350;2023-09-18T14:27:24;0.95;;;0.88;;
41667;SDS011;27356;50.920;5.350;2023-09-18T14:29:50;2.50;;;1.00;;
41667;SDS011;27356;50.920;5.350;2023-09-18T14:32:15;6.03;;;0.70;;
41667;SDS011;27356;50.920;5.350;2023-09-18T14:34:41;1.10;;;0.60;;
41667;SDS011;27356;50.920;5.350;2023-09-18T14:37:07;1.33;;;0.98;;
41667;SDS011;27356;50.920;5.350;2023-09-18T14:39:34;1.50;;;0.73;;
41667;SDS011;27356;50.920;5.350;2023-09-18T14:42:00;2.40;;;0.82;;
41667;SDS011;27356;50.920;5.350;2023-09-18T14:44:26;5.07;;;1.10;;
41667;SDS011;27356;50.920;5.350;2023-09-18T14:46:55;2.13;;;0.80;;
41667;SDS011;27356;50.920;5.350;2023-09-18T14:49:21;1.15;;;1.00;;
41667;SDS011;27356;50.920;5.350;2023-09-18T14:51:47;1.42;;;0.77;;
41667;SDS011;27356;50.920;5.350;2023-09-18T14:54:14;1.83;;;0.55;;
41667;SDS011;27356;50.920;5.350;2023-09-18T14:56:40;1.13;;;0.70;;
41667;SDS011;27356;50.920;5.350;2023-09-18T14:59:06;1.73;;;0.70;;
41667;SDS011;27356;50.920;5.350;2023-09-18T15:01:35;4.72;;;1.10;;
41667;SDS011;27356;50.920;5.350;2023-09-18T15:04:00;1.17;;;0.80;;
41667;SDS011;27356;50.920;5.350;2023-09-18T15:06:26;6.10;;;1.70;;
41667;SDS011;27356;50.920;5.350;2023-09-18T15:08:52;3.47;;;1.05;;
41667;SDS011;27356;50.920;5.350;2023-09-18T15:11:19;1.67;;;0.90;;
41667;SDS011;27356;50.920;5.350;2023-09-18T15:13:47;1.40;;;0.95;;
41667;SDS011;27356;50.920;5.350;2023-09-18T15:16:13;0.93;;;0.60;;
41667;SDS011;27356;50.920;5.350;2023-09-18T15:18:39;1.88;;;1.20;;
41667;SDS011;27356;50.920;5.350;2023-09-18T15:21:04;5.05;;;0.88;;